Карточка аэропорта UMKK

Внимание!
Информация на этой странице в стадии наполнения.
Если вы не увидели какой-то информации, или заметили неточность - пожалуйста сообщите нам!
Спасибо!
Команда RU-STAFF
Название аэропортаХраброво
Название аэропорта (англ.)Khrabrovo
Превышение43 ft. (13.1 m.)
Координаты54°53.4', 20°35.55'
Высота перехода4000ft
Эшелон переходаFL50 (QNH>=1013hPa); FL60 (QNH<1013hPa); FL50 (QNH<977hPa);
Коды ответчика6620-6637
Зона ОрВДКалининград РПИ (UMKK)
Данные METARUMKK 010430Z 27009MPS 2700 -SHRASN BKN017CB 04/02 Q0994 RESHRA RESHSN R24/290095 NOSIG RMK QFE744/0993
Проноз погоды (TAF)UMKK 010158Z 0103/0203 27010G15MPS 6000 -SHRA BKN010 BKN016CB TEMPO 0103/0108 28013G20MPS 0500 +SHRASN BKN003 BKN010CB BECMG 0108/0109 BKN016CB TEMPO 0109/0119 1000 SHSNRA BKN004 BKN012CB PROB40 TEMPO 0114/0118 -TSRAGS BECMG 0122/0124 25006G12MPS BKN010CB
NOTAMshow/hide NOTAM
AWOS   TABLE

Информация о ВПП

ВПП Длина ВПП (м.) Покрытие Курс ВПП Частота ILS
243350Асфальтобетон240109.5
063350Асфальтобетон60110.3

Диспетчерские позиции

Позывной Наименование органа УВД Частота
UMKK_APPКалининград-Подход126.0
UMKK_TWRКалининград-Вышка127.2



Спутниковое изображение